createdAt,value
2023-09-08T00:01:54.704Z,72.9
2023-09-08T00:07:01.024Z,72.9
2023-09-08T00:17:14.555Z,73.0
2023-09-08T00:22:21.002Z,73.1
2023-09-08T00:27:27.372Z,73.1
2023-09-08T00:32:33.876Z,72.9
2023-09-08T00:37:40.100Z,73.2
2023-09-08T00:42:46.488Z,73.3
2023-09-08T00:47:52.944Z,73.3
2023-09-08T00:52:58.282Z,73.4
2023-09-08T00:58:05.674Z,73.5
2023-09-08T01:03:12.139Z,73.6
2023-09-08T01:08:22.059Z,73.7
2023-09-08T01:21:12.558Z,73.9
2023-09-08T01:26:14.893Z,73.6
2023-09-08T01:36:07.765Z,74.0
2023-09-08T01:41:14.328Z,74.0
2023-09-08T01:46:20.744Z,73.9
2023-09-08T01:51:27.171Z,74.0
2023-09-08T01:56:33.600Z,74.2
2023-09-08T02:01:40.013Z,73.9
2023-09-08T02:06:46.489Z,73.9
2023-09-08T02:11:52.888Z,74.1
2023-09-08T02:16:49.287Z,74.2
2023-09-08T02:22:32.294Z,74.1
2023-09-08T02:27:15.664Z,74.4
2023-09-08T02:32:42.109Z,74.5
2023-09-08T02:37:28.397Z,74.3
2023-09-08T02:42:34.979Z,74.3
2023-09-08T02:47:31.275Z,74.4
2023-09-08T02:53:07.710Z,74.7
2023-09-08T02:57:54.339Z,74.7
2023-09-08T03:03:00.716Z,74.4
2023-09-08T03:13:14.080Z,74.5
2023-09-08T03:18:20.529Z,74.7
2023-09-08T03:23:31.119Z,74.5
2023-09-08T03:38:50.263Z,74.5
2023-09-08T03:43:56.652Z,74.8
2023-09-08T03:48:53.142Z,74.5
2023-09-08T03:54:29.636Z,74.6
2023-09-08T03:59:16.035Z,74.5
2023-09-08T04:04:22.441Z,74.6
2023-09-08T04:09:28.815Z,74.7
2023-09-08T04:14:35.392Z,74.6
2023-09-08T04:24:37.938Z,74.7
2023-09-08T04:35:24.788Z,74.8
2023-09-08T04:40:07.101Z,74.7
2023-09-08T04:45:13.494Z,74.9
2023-09-08T04:50:39.947Z,75.1
2023-09-08T05:10:45.755Z,74.9
2023-09-08T05:15:42.127Z,75.0
2023-09-08T05:21:22.606Z,75.0
2023-09-08T05:26:04.901Z,74.9
2023-09-08T05:31:11.289Z,75.0
2023-09-08T05:36:17.644Z,75.0
2023-09-08T05:41:14.022Z,74.9
2023-09-08T05:47:14.592Z,74.7
2023-09-08T05:52:00.876Z,74.6
2023-09-08T05:56:43.205Z,74.6
2023-09-08T06:02:09.611Z,74.5
2023-09-08T06:06:55.970Z,74.8
2023-09-08T06:12:02.469Z,74.7
2023-09-08T06:17:08.928Z,74.7
2023-09-08T06:22:15.311Z,75.0
2023-09-08T06:27:21.720Z,75.0
2023-09-08T06:32:28.153Z,75.1
2023-09-08T06:37:34.449Z,77.0
2023-09-08T06:43:04.896Z,75.6
2023-09-08T06:47:47.279Z,75.1
2023-09-08T06:52:53.597Z,74.7
2023-09-08T06:58:20.042Z,75.7
2023-09-08T07:04:26.661Z,75.5
2023-09-08T07:08:02.712Z,76.4
2023-09-08T07:13:39.452Z,75.7
2023-09-08T07:18:45.689Z,76.1
2023-09-08T07:23:22.028Z,76.3
2023-09-08T07:28:38.569Z,77.4
2023-09-08T07:33:45.011Z,78.0
2023-09-08T07:38:41.370Z,77.6
2023-09-08T07:43:57.988Z,76.8
2023-09-08T07:49:04.206Z,75.1
2023-09-08T07:54:10.586Z,72.8
2023-09-08T08:01:17.237Z,70.8
2023-09-08T08:04:23.466Z,68.8
2023-09-08T08:09:19.734Z,67.2
2023-09-08T08:15:00.300Z,65.7
2023-09-08T08:24:48.893Z,62.7
2023-09-08T08:30:15.299Z,61.1
2023-09-08T08:35:01.627Z,60.7
2023-09-08T08:40:08.036Z,59.6
2023-09-08T08:45:15.552Z,58.9
2023-09-08T08:55:29.552Z,57.6
2023-09-08T09:00:35.900Z,57.2
2023-09-08T09:05:46.820Z,56.6
2023-09-08T09:10:50.873Z,56.0
2023-09-08T09:16:53.330Z,55.9
2023-09-08T09:21:27.655Z,55.6
2023-09-08T09:26:34.091Z,55.2
2023-09-08T09:31:16.330Z,54.9
2023-09-08T09:37:06.738Z,54.3
2023-09-08T09:41:53.131Z,54.0
2023-09-08T09:46:59.508Z,54.0
2023-09-08T09:56:50.340Z,52.5
2023-09-08T10:07:00.974Z,51.4
2023-09-08T10:12:07.477Z,52.2
2023-09-08T10:17:13.998Z,50.8
2023-09-08T10:22:20.547Z,50.9
2023-09-08T10:27:16.836Z,50.3
2023-09-08T10:32:33.241Z,49.0
2023-09-08T10:38:03.612Z,49.4
2023-09-08T10:42:45.995Z,49.0
2023-09-08T10:47:52.357Z,48.4
2023-09-08T10:53:32.981Z,47.3
2023-09-08T11:03:11.509Z,45.7
2023-09-08T11:08:42.623Z,45.2
2023-09-08T11:18:35.246Z,43.0
2023-09-08T11:23:41.294Z,42.8
2023-09-08T11:28:47.675Z,39.7
2023-09-08T11:34:14.338Z,37.9
2023-09-08T11:38:50.600Z,40.2
2023-09-08T11:44:07.013Z,39.7
2023-09-08T11:49:13.431Z,41.6
2023-09-08T11:54:51.855Z,42.1
2023-09-08T11:59:26.258Z,42.8
2023-09-08T12:05:28.779Z,41.3
2023-09-08T12:09:28.982Z,41.9
2023-09-08T12:14:48.136Z,41.5
2023-09-08T12:19:51.765Z,41.3
2023-09-08T12:24:58.242Z,41.9
2023-09-08T12:30:04.553Z,41.9
2023-09-08T12:35:10.911Z,42.9
2023-09-08T12:40:17.361Z,43.6
2023-09-08T12:45:37.803Z,43.2
2023-09-08T12:51:14.297Z,43.6
2023-09-08T12:55:56.739Z,44.1
2023-09-08T13:01:27.230Z,44.6
2023-09-08T13:05:49.600Z,44.6
2023-09-08T13:11:39.983Z,44.6
2023-09-08T13:26:15.000Z,47.0
2023-09-08T13:31:21.451Z,47.1
2023-09-08T13:36:27.801Z,47.4
2023-09-08T13:41:34.116Z,47.5
2023-09-08T13:46:40.644Z,48.1
2023-09-08T13:51:49.363Z,48.1
2023-09-08T13:57:21.022Z,47.9
2023-09-08T14:17:43.032Z,48.9
2023-09-08T14:22:25.341Z,48.8
2023-09-08T14:27:21.717Z,49.1
2023-09-08T14:32:38.137Z,49.4
2023-09-08T14:37:44.502Z,48.3
2023-09-08T14:43:14.966Z,49.4
2023-09-08T14:47:59.569Z,49.2
2023-09-08T14:53:23.733Z,49.5
2023-09-08T14:58:24.118Z,50.1
2023-09-08T15:08:23.002Z,51.5
2023-09-08T15:13:49.476Z,51.6
2023-09-08T15:18:35.821Z,52.3
2023-09-08T15:23:42.204Z,52.7
2023-09-08T15:33:55.106Z,53.7
2023-09-08T15:39:01.373Z,53.9
2023-09-08T15:44:07.750Z,54.0
2023-09-08T15:49:14.227Z,54.6
2023-09-08T15:54:20.565Z,54.8
2023-09-08T15:59:26.995Z,54.9
2023-09-08T16:04:33.649Z,55.5
2023-09-08T16:09:39.856Z,55.9
2023-09-08T16:15:06.327Z,56.3
2023-09-08T16:24:59.012Z,56.7
2023-09-08T16:30:05.388Z,56.8
2023-09-08T16:35:11.760Z,56.8
2023-09-08T16:40:18.152Z,57.4
2023-09-08T16:45:24.518Z,57.5
2023-09-08T16:50:44.920Z,58.3
2023-09-08T16:55:37.509Z,58.6
2023-09-08T17:06:14.512Z,59.1
2023-09-08T17:10:58.499Z,59.6
2023-09-08T17:16:03.192Z,59.8
2023-09-08T17:21:09.556Z,60.2
2023-09-08T17:26:15.969Z,60.9
2023-09-08T17:31:42.382Z,61.1
2023-09-08T17:37:10.772Z,61.5
2023-09-08T17:41:35.115Z,61.9
2023-09-08T17:47:09.592Z,62.4
2023-09-08T17:52:24.638Z,62.8
2023-09-08T17:57:32.125Z,62.9
2023-09-08T18:02:42.480Z,63.3
2023-09-08T18:07:44.760Z,63.5
2023-09-08T18:12:51.372Z,63.9
2023-09-08T18:18:21.773Z,64.1
2023-09-08T18:23:04.157Z,65.0
2023-09-08T18:28:30.827Z,64.9
2023-09-08T18:33:38.000Z,65.6
2023-09-08T18:38:24.191Z,65.8
2023-09-08T18:43:30.532Z,66.2
2023-09-08T18:48:36.966Z,66.7
2023-09-08T18:54:34.435Z,66.9
2023-09-08T18:58:52.715Z,67.2
2023-09-08T19:04:23.201Z,67.6
2023-09-08T19:09:29.699Z,67.9
2023-09-08T19:14:02.014Z,68.0
2023-09-08T19:19:57.517Z,68.3
2023-09-08T19:24:24.509Z,68.7
2023-09-08T19:29:31.853Z,68.8
2023-09-08T19:34:58.524Z,69.2
2023-09-08T19:39:44.914Z,69.4
2023-09-08T19:44:51.264Z,69.5
2023-09-08T19:50:17.696Z,69.9
2023-09-08T19:55:04.070Z,69.9
2023-09-08T20:00:10.462Z,69.9
2023-09-08T20:05:16.884Z,70.5
2023-09-08T20:10:23.389Z,71.1
2023-09-08T20:16:41.978Z,70.7
2023-09-08T20:21:15.216Z,70.5
2023-09-08T20:31:52.350Z,70.7
2023-09-08T20:36:38.669Z,70.8
2023-09-08T20:42:00.216Z,71.0
2023-09-08T20:47:27.692Z,71.4
2023-09-08T20:52:09.979Z,71.4
2023-09-08T20:57:20.391Z,71.5
2023-09-08T21:02:41.821Z,71.8
2023-09-08T21:07:28.154Z,71.9
2023-09-08T21:12:15.560Z,72.2
2023-09-08T21:17:21.951Z,71.9
2023-09-08T21:22:48.332Z,72.4
2023-09-08T21:27:34.708Z,72.0
2023-09-08T21:33:01.342Z,72.7
2023-09-08T21:37:37.555Z,73.3
2023-09-08T21:42:43.933Z,72.6
2023-09-08T21:48:44.702Z,73.0
2023-09-08T21:53:50.976Z,73.0
2023-09-08T22:05:24.949Z,73.5
2023-09-08T22:18:55.650Z,73.3
2023-09-08T22:24:27.042Z,73.2
2023-09-08T22:29:45.073Z,73.3
2023-09-08T22:35:16.481Z,73.3
2023-09-08T22:39:58.826Z,73.4
2023-09-08T22:50:11.542Z,73.8
2023-09-08T22:55:25.875Z,73.6
2023-09-08T23:00:24.420Z,74.1
2023-09-08T23:06:04.858Z,73.6
2023-09-08T23:12:34.549Z,73.8
2023-09-08T23:17:40.866Z,73.9
2023-09-08T23:22:48.185Z,74.1
2023-09-08T23:27:58.592Z,74.3
2023-09-08T23:33:01.836Z,74.4
2023-09-08T23:43:18.592Z,74.0
2023-09-08T23:48:40.987Z,75.0
2023-09-08T23:53:47.378Z,74.3
2023-09-08T23:59:12.852Z,74.3
